Time;durP1;ratioP1;P1;durP2;ratioP2;P2;SDS_P1;SDS_P2;PMS_P1;PMS_P2;Temp;Humidity;BMP_temperature;BMP_pressure;BME280_temperature;BME280_humidity;BME280_pressure;Samples;Min_cycle;Max_cycle;Signal;HPM_P1;HPM_P2
2024/04/09 00:00:46;;;;;;;13.95;2.65;;;23.10;25.30;;;19.55;27.09;94483.81;5263417;26;20021;-57
2024/04/09 00:03:13;;;;;;;16.85;2.88;;;23.10;25.20;;;19.59;28.09;94482.00;5262976;26;20012;-54
2024/04/09 00:05:40;;;;;;;16.85;3.30;;;23.10;25.40;;;19.60;28.20;94488.97;5261177;27;20044;-58
2024/04/09 00:08:13;;;;;;;13.65;2.60;;;23.10;25.30;;;19.60;28.23;94475.47;5257343;27;20002;-57
2024/04/09 00:10:40;;;;;;;16.48;3.55;;;23.10;25.40;;;19.57;27.07;94475.38;5258439;27;20022;-57
2024/04/09 00:13:06;;;;;;;15.70;2.38;;;23.10;25.30;;;19.55;28.76;94472.22;5264346;27;20432;-56
2024/04/09 00:15:34;;;;;;;20.92;3.40;;;23.00;25.40;;;19.55;27.86;94470.31;5259510;27;20018;-55
2024/04/09 00:18:17;;;;;;;15.30;3.00;;;23.00;25.30;;;19.53;28.32;94477.22;5268300;27;20006;-54
2024/04/09 00:20:48;;;;;;;12.68;2.88;;;23.10;25.40;;;19.47;29.27;94471.28;5293662;26;20076;-55
2024/04/09 00:23:16;;;;;;;13.65;2.67;;;23.00;25.50;;;19.41;29.05;94462.66;5265262;27;20026;-57
2024/04/09 00:25:46;;;;;;;13.05;3.10;;;23.00;25.60;;;19.41;27.95;94451.84;5264854;27;20576;-55
2024/04/09 00:28:13;;;;;;;17.73;3.17;;;23.00;25.50;;;19.42;28.06;94453.41;5261528;27;20005;-50
2024/04/09 00:30:44;;;;;;;19.02;3.90;;;23.00;25.50;;;19.53;27.50;94453.69;5267186;27;20009;-53
2024/04/09 00:33:12;;;;;;;15.55;3.97;;;23.00;25.40;;;19.63;27.93;94468.59;5264978;27;20493;-52
2024/04/09 00:35:38;;;;;;;18.70;3.40;;;23.00;25.40;;;19.66;28.58;94470.63;5267945;27;20747;-53
2024/04/09 00:38:06;;;;;;;18.48;3.80;;;23.00;25.50;;;19.62;28.72;94456.22;5264156;27;20029;-52
2024/04/09 00:40:33;;;;;;;17.23;3.38;;;23.00;25.50;;;19.55;27.68;94461.44;5269597;27;20450;-56
2024/04/09 00:43:02;;;;;;;21.95;3.15;;;23.00;25.40;;;19.48;29.72;94462.03;5265414;27;20025;-50
2024/04/09 00:45:30;;;;;;;11.73;3.35;;;23.00;25.60;;;19.31;28.69;94468.56;5263588;27;20006;-50
2024/04/09 00:48:00;;;;;;;19.00;3.22;;;23.00;25.70;;;19.32;29.00;94472.06;5258052;27;20005;-54
2024/04/09 00:50:29;;;;;;;14.43;3.85;;;22.90;25.60;;;19.27;29.38;94483.09;5264091;27;20010;-53
2024/04/09 00:52:58;;;;;;;22.17;4.10;;;22.90;25.80;;;19.18;29.85;94477.88;5267943;27;20013;-54
2024/04/09 00:55:25;;;;;;;24.42;4.10;;;22.80;25.80;;;19.09;30.25;94486.13;5264549;27;20595;-56
2024/04/09 00:57:53;;;;;;;21.15;3.28;;;22.80;25.90;;;18.96;31.61;94487.31;5263114;27;20021;-52
2024/04/09 01:00:20;;;;;;;18.15;3.78;;;22.70;26.20;;;18.81;31.41;94488.81;5268991;27;20018;-54
2024/04/09 01:02:48;;;;;;;26.88;3.78;;;22.60;26.30;;;18.70;30.04;94496.56;5263883;27;20346;-55
2024/04/09 01:05:16;;;;;;;16.92;3.40;;;22.60;26.20;;;18.62;30.75;94502.91;5268266;27;20028;-54
2024/04/09 01:07:44;;;;;;;14.48;3.42;;;22.50;26.30;;;18.53;31.51;94504.16;5280205;22;20009;-53
2024/04/09 01:10:10;;;;;;;14.07;3.05;;;22.40;26.50;;;18.39;34.72;94515.31;5272049;27;20454;-58
2024/04/09 01:12:37;;;;;;;13.43;3.22;;;22.30;26.80;;;18.23;32.11;94505.22;5255830;27;20014;-58
2024/04/09 01:15:03;;;;;;;16.95;3.33;;;22.20;26.90;;;18.16;33.50;94510.38;5254669;26;20018;-58
2024/04/09 01:17:29;;;;;;;15.23;3.88;;;22.10;27.00;;;18.05;33.81;94520.06;5252737;27;20016;-53
2024/04/09 01:19:56;;;;;;;23.55;3.72;;;22.00;27.20;;;17.92;33.96;94513.09;5217212;27;20022;-58
2024/04/09 01:22:22;;;;;;;15.05;3.50;;;21.90;27.40;;;17.78;33.22;94514.22;5234358;27;20006;-57
2024/04/09 01:24:48;;;;;;;15.07;3.53;;;21.80;27.50;;;17.85;33.76;94518.25;5229475;27;20011;-56
2024/04/09 01:27:16;;;;;;;17.35;3.65;;;21.80;27.60;;;17.85;33.24;94516.34;5246152;27;20013;-57
2024/04/09 01:29:43;;;;;;;20.02;3.63;;;21.70;27.60;;;17.80;36.31;94516.59;5251528;27;20002;-57
2024/04/09 01:32:10;;;;;;;18.40;2.90;;;21.60;27.80;;;17.62;35.65;94523.25;5251218;27;20443;-51
2024/04/09 01:34:36;;;;;;;16.20;3.15;;;21.60;28.10;;;17.51;35.68;94534.44;5248705;27;20006;-58
2024/04/09 01:37:04;;;;;;;19.50;3.38;;;21.50;28.20;;;17.42;34.06;94546.41;5249954;27;20050;-57
2024/04/09 01:39:35;;;;;;;17.10;2.97;;;21.50;28.30;;;17.39;35.69;94557.84;5247084;27;20085;-57
2024/04/09 01:42:03;;;;;;;16.45;3.28;;;21.40;28.30;;;17.38;35.56;94553.59;5250007;27;20357;-54
2024/04/09 01:44:29;;;;;;;20.05;4.00;;;21.30;28.50;;;17.31;36.28;94559.53;5257776;27;20006;-51
2024/04/09 01:46:55;;;;;;;19.90;2.80;;;21.30;28.60;;;17.24;36.05;94565.44;5246103;27;20059;-53
2024/04/09 01:49:25;;;;;;;19.00;3.53;;;21.20;28.70;;;17.18;36.06;94572.16;5256402;27;20477;-54
2024/04/09 01:51:51;;;;;;;13.70;3.63;;;21.10;28.80;;;17.11;36.11;94572.69;5243456;27;20006;-57
2024/04/09 01:54:18;;;;;;;14.98;3.38;;;21.10;29.00;;;17.03;36.05;94581.59;5252657;27;20021;-57
2024/04/09 01:56:45;;;;;;;14.95;2.55;;;21.00;29.10;;;16.98;36.10;94583.72;5245922;27;20002;-55
2024/04/09 01:59:11;;;;;;;17.83;3.83;;;20.90;29.10;;;16.92;36.44;94593.09;5259854;26;20001;-50
2024/04/09 02:01:40;;;;;;;19.35;3.25;;;20.80;29.20;;;16.93;36.04;94595.47;5251278;26;20006;-51
2024/04/09 02:04:07;;;;;;;15.18;3.55;;;20.70;29.30;;;16.91;36.42;94602.28;5246259;27;20008;-48
2024/04/09 02:06:33;;;;;;;17.55;3.35;;;20.70;29.40;;;16.88;36.36;94603.72;5241836;27;20081;-50
2024/04/09 02:08:59;;;;;;;14.52;3.20;;;20.70;29.50;;;16.86;36.48;94614.81;5245941;27;20016;-52
2024/04/09 02:11:28;;;;;;;22.92;4.22;;;20.60;29.50;;;16.99;36.48;94622.97;5250709;26;20002;-51
2024/04/09 02:13:58;;;;;;;19.98;3.75;;;20.60;29.60;;;17.05;36.78;94624.34;5256465;27;19998;-54
2024/04/09 02:16:24;;;;;;;14.98;3.00;;;20.60;29.80;;;17.09;37.41;94630.63;5253496;27;20006;-53
2024/04/09 02:18:51;;;;;;;16.00;3.70;;;20.60;29.90;;;17.11;38.11;94626.50;5283461;26;20007;-50
2024/04/09 02:21:20;;;;;;;18.52;3.78;;;20.70;30.00;;;17.12;38.17;94619.22;5248156;27;20018;-55
2024/04/09 02:23:52;;;;;;;21.30;3.22;;;20.70;30.20;;;17.11;39.11;94618.44;5254428;27;20481;-57
2024/04/09 02:26:18;;;;;;;19.35;3.67;;;20.70;30.60;;;17.16;39.44;94624.72;5245422;27;20033;-53
2024/04/09 02:28:44;;;;;;;13.75;3.70;;;20.70;30.80;;;17.13;40.20;94623.47;5240092;27;20359;-51
2024/04/09 02:31:10;;;;;;;18.17;3.15;;;20.70;31.10;;;17.09;40.74;94630.63;5241916;27;20021;-48
2024/04/09 02:33:37;;;;;;;30.48;4.10;;;20.70;31.30;;;17.05;40.79;94624.34;5263875;26;20046;-54
2024/04/09 02:36:06;;;;;;;18.75;3.67;;;20.70;31.50;;;16.99;41.52;94623.75;5252751;27;20039;-49
2024/04/09 02:38:36;;;;;;;16.02;3.60;;;20.60;31.80;;;16.91;42.09;94629.97;5247143;27;20089;-53
2024/04/09 02:41:12;;;;;;;18.58;3.67;;;20.60;32.00;;;16.84;42.36;94627.78;5246800;26;20366;-53
2024/04/09 02:43:39;;;;;;;19.85;4.03;;;20.60;32.40;;;16.79;42.57;94638.72;5240334;27;20085;-53
2024/04/09 02:46:05;;;;;;;17.42;3.25;;;20.50;32.30;;;16.68;42.82;94644.81;5233481;27;20013;-49
2024/04/09 02:48:31;;;;;;;25.15;3.88;;;20.50;32.60;;;16.60;42.73;94647.19;5251584;27;20006;-53
2024/04/09 02:51:03;;;;;;;20.35;3.58;;;20.40;32.70;;;16.43;45.30;94653.47;5237391;27;20485;-52
2024/04/09 02:53:30;;;;;;;20.52;3.90;;;20.30;33.20;;;16.11;45.68;94649.50;5225120;27;20408;-51
2024/04/09 02:56:01;;;;;;;24.10;3.67;;;20.20;33.40;;;16.05;46.43;94650.00;5207314;27;20478;-54
2024/04/09 02:58:28;;;;;;;20.30;4.07;;;20.10;33.70;;;15.95;45.73;94645.75;5243834;27;20002;-48
2024/04/09 03:00:56;;;;;;;22.45;3.55;;;20.00;33.90;;;15.86;46.68;94651.16;5242986;27;20016;-49
2024/04/09 03:03:22;;;;;;;22.38;4.25;;;19.80;34.20;;;15.76;46.70;94656.84;5241864;27;20594;-49
2024/04/09 03:05:48;;;;;;;18.48;3.17;;;19.70;34.40;;;15.66;47.09;94662.53;5250594;27;20006;-50
2024/04/09 03:08:15;;;;;;;25.85;4.15;;;19.60;34.70;;;15.54;46.92;94665.84;5239801;27;20066;-51
2024/04/09 03:10:41;;;;;;;21.83;4.22;;;19.50;34.80;;;15.48;47.26;94665.25;5248294;27;20046;-51
2024/04/09 03:13:07;;;;;;;17.45;3.83;;;19.50;35.20;;;15.47;47.12;94655.59;5256285;27;20487;-47
2024/04/09 03:15:33;;;;;;;23.92;4.25;;;19.40;35.40;;;15.47;47.11;94642.19;5237700;27;20010;-47
2024/04/09 03:17:59;;;;;;;18.42;3.53;;;19.40;35.60;;;15.42;48.04;94647.75;5252323;26;20024;-51
2024/04/09 03:20:25;;;;;;;15.35;3.42;;;19.30;35.70;;;15.38;48.55;94651.34;5242857;27;20014;-48
2024/04/09 03:22:51;;;;;;;17.08;3.72;;;19.30;35.90;;;15.31;48.95;94659.09;5246148;27;20075;-52
2024/04/09 03:25:17;;;;;;;15.43;3.33;;;19.20;36.00;;;15.25;49.05;94669.19;5244891;27;20386;-49
2024/04/09 03:27:43;;;;;;;22.23;3.80;;;19.20;36.20;;;15.19;49.38;94673.91;5249126;26;20552;-49
2024/04/09 03:30:09;;;;;;;24.08;4.30;;;19.10;36.40;;;15.14;49.58;94679.47;5242588;27;20002;-54
2024/04/09 03:32:36;;;;;;;20.08;3.95;;;19.10;36.60;;;15.10;50.02;94680.38;5244140;27;20018;-52
2024/04/09 03:35:02;;;;;;;16.85;3.00;;;19.00;36.90;;;15.10;49.67;94688.44;5244274;27;20019;-48
2024/04/09 03:37:28;;;;;;;21.00;4.03;;;19.00;37.10;;;15.08;49.40;94686.09;5246678;27;20006;-47
2024/04/09 03:39:55;;;;;;;16.45;3.13;;;18.90;37.20;;;15.13;48.93;94671.72;5227345;27;20026;-47
2024/04/09 03:42:21;;;;;;;20.92;3.70;;;18.90;37.30;;;15.17;49.52;94668.09;5245752;27;20013;-51
2024/04/09 03:44:47;;;;;;;19.80;3.08;;;18.90;37.40;;;15.18;48.83;94653.56;5276130;26;20014;-47
2024/04/09 03:47:13;;;;;;;21.52;3.72;;;18.90;37.40;;;15.18;48.47;94645.53;5244242;27;20119;-47
2024/04/09 03:49:39;;;;;;;19.90;3.10;;;18.90;37.50;;;15.19;48.38;94654.38;5248271;26;20466;-49
2024/04/09 03:52:06;;;;;;;17.95;3.15;;;18.90;37.60;;;15.27;48.63;94669.69;5238916;27;20007;-47
2024/04/09 03:54:32;;;;;;;17.02;2.80;;;19.00;37.60;;;15.28;48.43;94679.28;5250417;26;20045;-47
2024/04/09 03:57:03;;;;;;;15.23;2.95;;;19.00;37.60;;;15.27;48.57;94675.03;5231145;27;20026;-49
2024/04/09 03:59:35;;;;;;;16.80;3.35;;;19.00;37.60;;;15.23;48.86;94682.13;5245404;26;20005;-50
2024/04/09 04:02:01;;;;;;;;;;;19.00;37.70;;;15.22;49.17;94694.75;5249611;27;20006;-48
2024/04/09 04:04:27;;;;;;;18.58;2.88;;;18.90;37.40;;;15.19;49.00;94698.06;5245232;26;19938;-47
2024/04/09 04:06:53;;;;;;;19.42;3.10;;;19.00;37.40;;;15.16;48.67;94696.00;5245980;27;20006;-53
2024/04/09 04:09:23;;;;;;;22.00;2.75;;;19.00;37.50;;;15.14;49.25;94708.97;5246172;27;20016;-50
2024/04/09 04:11:50;;;;;;;19.38;2.60;;;18.90;37.60;;;15.10;49.69;94697.25;5254813;27;20015;-50
2024/04/09 04:14:16;;;;;;;19.30;2.63;;;18.90;37.70;;;15.08;49.79;94710.22;5257195;27;20015;-48
2024/04/09 04:16:42;;;;;;;18.10;2.80;;;18.90;37.90;;;15.11;49.89;94714.16;5276929;26;20017;-52
2024/04/09 04:19:08;;;;;;;13.35;2.53;;;18.90;38.10;;;15.12;50.33;94718.44;5255597;27;20006;-53
2024/04/09 04:21:34;;;;;;;17.95;3.45;;;18.90;38.30;;;15.08;50.69;94729.00;5239934;27;20006;-48
2024/04/09 04:24:00;;;;;;;19.38;2.80;;;18.90;38.50;;;15.03;51.69;94727.22;5250585;27;20021;-51
2024/04/09 04:26:27;;;;;;;15.85;2.78;;;18.90;38.70;;;15.04;52.15;94733.38;5253893;26;20481;-56
2024/04/09 04:28:54;;;;;;;11.63;2.60;;;18.80;39.00;;;15.03;52.23;94734.50;5242982;27;20022;-53
2024/04/09 04:31:25;;;;;;;17.08;3.28;;;18.80;39.20;;;14.99;52.73;94734.34;5260223;27;20355;-56
2024/04/09 04:33:52;;;;;;;16.85;2.97;;;18.80;39.40;;;14.96;53.43;94740.31;5239844;27;20354;-53
2024/04/09 04:36:20;;;;;;;14.65;2.75;;;18.80;39.50;;;14.92;53.48;94731.34;5256352;27;20005;-54
2024/04/09 04:38:48;;;;;;;16.50;3.10;;;18.80;39.60;;;14.89;53.73;94745.38;5239247;27;20005;-55
2024/04/09 04:41:15;;;;;;;14.75;3.08;;;18.80;39.90;;;14.87;53.84;94744.09;5251832;27;20114;-56
2024/04/09 04:43:41;;;;;;;16.98;3.13;;;18.70;39.90;;;14.81;54.45;94741.53;5255543;27;20006;-54
2024/04/09 04:46:08;;;;;;;22.95;3.30;;;18.60;40.00;;;14.73;54.66;94747.69;5241803;27;20076;-53
2024/04/09 04:48:35;;;;;;;16.10;2.70;;;18.60;40.20;;;14.67;55.01;94753.50;5250691;27;20022;-48
2024/04/09 04:51:02;;;;;;;24.42;3.05;;;18.50;40.30;;;14.57;56.14;94758.03;5238172;27;20491;-48
2024/04/09 04:53:27;;;;;;;20.63;3.25;;;18.50;40.50;;;14.56;55.97;94755.66;5249356;27;20038;-48
2024/04/09 04:55:53;;;;;;;13.45;3.50;;;18.50;40.80;;;14.56;56.32;94775.19;5246658;27;20017;-47
2024/04/09 04:58:19;;;;;;;19.52;3.15;;;18.40;40.90;;;14.53;56.72;94775.03;5234728;27;20073;-53
2024/04/09 05:00:46;;;;;;;17.50;2.78;;;18.40;41.00;;;14.48;57.34;94778.59;5244752;27;20538;-47
2024/04/09 05:03:12;;;;;;;20.40;3.03;;;18.40;41.20;;;14.44;57.91;94790.22;5246154;27;20046;-52
2024/04/09 05:05:38;;;;;;;19.80;3.25;;;18.40;41.40;;;14.42;58.19;94803.16;5251278;27;20006;-50
2024/04/09 05:08:05;;;;;;;18.42;3.65;;;18.40;41.70;;;14.42;59.16;94805.84;5237643;27;20010;-54
2024/04/09 05:10:31;;;;;;;19.80;4.45;;;18.30;42.00;;;14.41;59.61;94810.38;5250758;27;20010;-48
2024/04/09 05:12:57;;;;;;;10.55;2.85;;;18.30;42.20;;;14.41;60.45;94813.06;5257801;26;20021;-50
2024/04/09 05:15:24;;;;;;;15.20;2.60;;;18.40;43.20;;;14.44;60.33;94817.81;5245906;26;20002;-49
2024/04/09 05:17:51;;;;;;;12.73;2.70;;;18.40;43.40;;;14.39;62.07;94820.63;5240102;27;20001;-50
2024/04/09 05:20:20;;;;;;;18.35;2.80;;;18.30;42.90;;;14.38;63.11;94829.75;5244850;27;20331;-47
2024/04/09 05:22:50;;;;;;;11.15;2.13;;;18.30;43.30;;;14.35;64.26;94843.75;5239503;27;19998;-48
2024/04/09 05:25:18;;;;;;;19.35;2.83;;;18.30;43.70;;;14.33;65.35;94845.97;5252299;27;20021;-49
2024/04/09 05:27:45;;;;;;;17.73;3.00;;;18.30;43.90;;;14.32;66.93;94855.09;5249287;26;19998;-51
2024/04/09 05:30:12;;;;;;;12.05;2.97;;;18.30;44.20;;;14.26;68.51;94862.47;5243088;27;20002;-47
2024/04/09 05:32:43;;;;;;;13.57;2.58;;;18.30;44.70;;;14.25;69.37;94876.16;5249901;26;20010;-54
2024/04/09 05:35:12;;;;;;;14.48;2.75;;;18.30;45.20;;;14.26;70.19;94869.72;5255947;27;20473;-50
2024/04/09 05:37:38;;;;;;;14.85;3.25;;;18.30;45.50;;;14.30;70.16;94879.50;5249975;26;20020;-49
2024/04/09 05:40:09;;;;;;;15.75;2.45;;;18.40;45.70;;;14.30;71.23;94889.44;5260282;27;20037;-51
2024/04/09 05:42:44;;;;;;;19.85;3.00;;;18.40;46.00;;;14.35;71.32;94881.28;5255149;26;20384;-54
2024/04/09 05:45:13;;;;;;;15.68;3.05;;;18.40;46.30;;;14.39;72.04;94892.19;5252690;27;20005;-47
2024/04/09 05:47:39;;;;;;;15.65;2.88;;;18.50;46.20;;;14.49;71.68;94905.34;5258655;27;20006;-48
2024/04/09 05:50:06;;;;;;;10.32;2.45;;;18.60;46.30;;;14.51;71.54;94903.19;5250171;27;20006;-48
2024/04/09 05:52:32;;;;;;;11.20;3.22;;;18.60;46.40;;;14.57;71.59;94918.81;5244301;27;20427;-47
2024/04/09 05:54:58;;;;;;;12.13;2.72;;;18.70;46.40;;;14.60;71.75;94930.81;5250957;26;20440;-49
2024/04/09 05:57:25;;;;;;;16.10;3.33;;;18.80;46.50;;;14.62;72.16;94931.31;5250882;27;20025;-52
2024/04/09 05:59:54;;;;;;;12.95;2.42;;;18.90;46.60;;;14.69;72.31;94930.88;5256105;27;20469;-50
2024/04/09 06:02:21;;;;;;;16.27;2.55;;;19.00;46.80;;;14.73;72.10;94932.66;5257627;27;20488;-51
2024/04/09 06:04:47;;;;;;;15.80;3.13;;;19.10;47.00;;;14.73;72.44;94931.84;5246439;27;20012;-50
2024/04/09 06:07:13;;;;;;;14.73;2.38;;;19.20;47.20;;;14.79;72.25;94928.75;5257384;27;20045;-53
2024/04/09 06:09:39;;;;;;;18.20;3.63;;;19.30;47.00;;;14.90;72.34;94934.63;5238290;27;20009;-52
2024/04/09 06:12:05;;;;;;;13.80;2.63;;;19.40;47.00;;;14.94;71.86;94930.22;5260172;27;20018;-50
2024/04/09 06:14:31;;;;;;;11.93;2.80;;;19.50;46.90;;;15.08;71.94;94948.13;5245762;27;20545;-49
2024/04/09 06:16:57;;;;;;;19.13;3.00;;;19.70;46.80;;;15.15;71.91;94951.16;5248482;26;20001;-48
2024/04/09 06:19:23;;;;;;;13.57;2.75;;;19.80;46.80;;;15.22;71.53;94956.88;5249446;27;20002;-54
2024/04/09 06:21:49;;;;;;;12.85;2.33;;;19.90;46.70;;;15.31;71.38;94962.28;5246377;26;20114;-53
2024/04/09 06:24:15;;;;;;;12.18;3.00;;;19.90;46.60;;;15.35;71.26;94972.06;5256551;26;20006;-50
2024/04/09 06:26:41;;;;;;;16.23;2.75;;;20.00;46.60;;;15.36;70.90;94971.00;5243415;27;20509;-53
2024/04/09 06:29:07;;;;;;;16.35;2.30;;;20.00;46.60;;;15.45;71.22;94973.72;5253527;27;20017;-53
2024/04/09 06:31:33;;;;;;;17.42;3.45;;;20.10;46.60;;;15.45;70.66;94979.09;5250773;27;20002;-50
2024/04/09 06:33:59;;;;;;;16.17;2.88;;;20.10;46.50;;;15.46;71.01;94977.97;5228836;26;20080;-50
2024/04/09 06:36:26;;;;;;;12.98;3.13;;;20.20;46.50;;;15.45;71.25;94971.81;5258842;27;20792;-47
2024/04/09 06:38:52;;;;;;;16.95;3.03;;;20.30;46.50;;;15.55;71.10;94967.28;5247305;27;20043;-49
2024/04/09 06:41:18;;;;;;;13.80;2.88;;;20.40;46.50;;;15.63;70.92;94969.97;5257344;27;20002;-50
2024/04/09 06:43:44;;;;;;;12.73;2.05;;;20.50;46.50;;;15.31;67.40;94999.84;5246295;27;20085;-49
2024/04/09 06:46:10;;;;;;;10.45;1.27;;;20.50;46.30;;;14.48;65.55;94990.28;5232322;27;20465;-51
2024/04/09 06:48:36;;;;;;;10.88;1.23;;;20.30;45.40;;;13.57;65.83;95019.75;5218129;27;20020;-56
2024/04/09 06:51:03;;;;;;;10.13;1.15;;;20.00;44.50;;;13.16;66.09;95042.69;5223542;27;20014;-51
2024/04/09 06:53:30;;;;;;;3.28;0.50;;;19.60;44.10;;;12.81;66.44;95048.59;5229260;27;20006;-54
2024/04/09 06:55:56;;;;;;;4.03;0.68;;;19.30;43.90;;;12.55;66.43;95040.16;5225969;27;20007;-49
2024/04/09 06:58:22;;;;;;;10.55;0.60;;;18.90;43.80;;;12.45;67.35;95068.63;5239432;27;20380;-50
2024/04/09 07:00:49;;;;;;;2.83;0.43;;;18.70;44.00;;;12.24;67.37;95072.63;5244448;27;20560;-50
2024/04/09 07:03:15;;;;;;;3.38;0.60;;;18.40;44.10;;;12.08;67.76;95085.38;5242047;27;20025;-50
2024/04/09 07:05:41;;;;;;;3.47;0.40;;;18.20;44.20;;;11.93;68.02;95101.56;5240512;27;20017;-47
2024/04/09 07:08:07;;;;;;;3.53;0.45;;;18.10;44.40;;;11.84;69.32;95113.91;5244532;27;20038;-49
2024/04/09 07:10:33;;;;;;;3.40;0.50;;;17.90;44.50;;;11.79;69.47;95115.56;5250122;27;20020;-50
2024/04/09 07:12:59;;;;;;;2.13;0.50;;;17.70;44.80;;;11.69;69.28;95128.19;5243479;27;20003;-48
2024/04/09 07:15:27;;;;;;;2.17;0.43;;;17.60;45.00;;;11.64;69.32;95138.94;5239070;27;20002;-50
2024/04/09 07:17:54;;;;;;;1.10;0.30;;;17.40;45.20;;;11.63;69.28;95138.16;5232850;27;20057;-47
2024/04/09 07:20:20;;;;;;;0.43;0.20;;;17.30;45.30;;;11.54;69.74;95158.50;5231380;27;20026;-48
2024/04/09 07:22:46;;;;;;;0.30;0.30;;;17.20;45.50;;;11.41;69.08;95157.28;5267488;26;20826;-49
2024/04/09 07:25:13;;;;;;;1.17;0.40;;;17.00;45.60;;;11.39;70.01;95162.09;5254489;27;20011;-53
2024/04/09 07:27:43;;;;;;;1.50;0.40;;;16.90;45.70;;;11.30;69.80;95150.44;5246377;27;19998;-53
2024/04/09 07:30:10;;;;;;;3.03;0.30;;;16.80;45.90;;;11.19;70.00;95151.56;5256366;27;20006;-52
2024/04/09 07:32:36;;;;;;;4.47;0.32;;;16.70;46.00;;;11.10;70.58;95160.19;5232366;27;20091;-53
2024/04/09 07:35:03;;;;;;;0.95;0.30;;;16.50;46.00;;;11.05;70.96;95170.88;5247142;27;20037;-55
2024/04/09 07:37:31;;;;;;;4.53;0.30;;;16.50;46.20;;;11.06;71.47;95185.00;5255522;27;20486;-47
2024/04/09 07:39:57;;;;;;;1.10;0.40;;;16.50;46.30;;;10.85;71.87;95195.00;5239591;27;20016;-53
2024/04/09 07:42:23;;;;;;;2.38;0.65;;;16.40;46.40;;;10.76;72.12;95205.44;5255851;26;20469;-53
2024/04/09 07:44:50;;;;;;;0.30;0.30;;;16.30;46.50;;;10.93;72.43;95209.59;5250619;27;20016;-50
2024/04/09 07:47:17;;;;;;;0.82;0.30;;;16.30;46.60;;;10.94;72.63;95200.56;5245644;27;20496;-47
2024/04/09 07:49:43;;;;;;;1.90;0.30;;;16.30;46.80;;;10.78;72.45;95197.97;5256379;27;20436;-52
2024/04/09 07:52:09;;;;;;;2.28;0.38;;;16.30;46.80;;;10.72;73.03;95187.59;5243012;27;20014;-50
2024/04/09 07:54:35;;;;;;;2.20;0.40;;;16.30;46.90;;;10.66;72.55;95189.50;5261795;27;20005;-48
2024/04/09 07:57:01;;;;;;;6.88;0.50;;;16.30;47.00;;;10.50;73.13;95225.25;5240619;27;20347;-50
2024/04/09 07:59:27;;;;;;;2.25;0.30;;;16.20;46.90;;;10.43;73.40;95228.19;5258513;26;20052;-53
2024/04/09 08:01:53;;;;;;;0.82;0.30;;;16.10;47.10;;;10.26;74.44;95222.38;5239316;27;20025;-53
2024/04/09 08:04:19;;;;;;;1.05;0.40;;;15.90;47.20;;;10.22;73.99;95229.31;5239663;27;20357;-58
2024/04/09 08:06:45;;;;;;;1.05;0.20;;;15.80;47.40;;;10.20;74.17;95241.00;5269210;27;20002;-51
2024/04/09 08:09:12;;;;;;;0.68;0.20;;;15.70;47.50;;;10.17;74.30;95236.22;5236647;27;20050;-52
2024/04/09 08:11:42;;;;;;;1.85;0.35;;;15.70;47.60;;;10.10;73.04;95243.72;5241190;27;20365;-50
2024/04/09 08:14:11;;;;;;;0.82;0.20;;;15.70;47.70;;;10.09;73.09;95244.78;5236415;27;20027;-54
2024/04/09 08:16:40;;;;;;;0.90;0.30;;;15.60;47.70;;;10.00;72.40;95229.59;5233933;27;20037;-49
2024/04/09 08:19:06;;;;;;;1.95;0.30;;;15.60;47.70;;;10.04;72.43;95244.00;5238853;27;20002;-49
2024/04/09 08:21:32;;;;;;;4.78;0.30;;;15.60;47.60;;;10.08;72.79;95251.16;5228333;27;20017;-47
2024/04/09 08:23:58;;;;;;;0.70;0.40;;;15.50;47.60;;;9.98;73.18;95245.06;5242230;27;20013;-48
2024/04/09 08:26:24;;;;;;;0.40;0.22;;;15.50;47.70;;;10.06;73.20;95252.47;5240295;27;20012;-49
2024/04/09 08:28:54;;;;;;;1.13;0.30;;;15.50;47.70;;;10.07;73.07;95276.19;5240180;27;20074;-49
2024/04/09 08:31:32;;;;;;;1.85;0.30;;;15.40;47.80;;;9.82;72.82;95274.34;5252189;26;20006;-48
2024/04/09 08:33:58;;;;;;;4.30;0.45;;;15.30;47.90;;;9.67;73.89;95299.06;5263366;27;20013;-49
2024/04/09 08:36:24;;;;;;;0.95;0.38;;;15.20;48.00;;;9.63;74.10;95297.22;5270009;27;20020;-47
2024/04/09 08:38:55;;;;;;;3.33;0.47;;;15.10;48.20;;;9.61;75.28;95296.66;5252250;27;20039;-47
2024/04/09 08:41:22;;;;;;;0.35;0.35;;;15.00;48.40;;;9.50;75.49;95293.22;5267050;27;20079;-47
2024/04/09 08:43:50;;;;;;;2.08;0.35;;;15.00;48.50;;;9.47;76.45;95307.81;5260517;27;20006;-49
2024/04/09 08:46:16;;;;;;;0.98;0.25;;;15.00;48.80;;;9.41;76.84;95322.19;5243833;27;20024;-51
2024/04/09 08:48:44;;;;;;;0.47;0.43;;;14.90;48.80;;;9.42;77.51;95320.31;5256353;27;20364;-55
2024/04/09 08:51:11;;;;;;;0.65;0.35;;;14.80;49.00;;;9.49;77.34;95348.25;5242081;27;20013;-50
2024/04/09 08:53:38;;;;;;;0.20;0.20;;;14.80;49.10;;;9.45;77.72;95357.00;5199106;27;20002;-48
2024/04/09 08:56:06;;;;;;;1.83;0.30;;;14.80;49.30;;;9.38;78.24;95372.41;5247180;27;20015;-49
2024/04/09 08:58:32;;;;;;;0.95;0.38;;;14.80;49.40;;;9.26;78.64;95384.06;5251230;27;20020;-47
2024/04/09 09:00:58;;;;;;;0.65;0.30;;;14.70;49.50;;;9.29;79.17;95384.59;5253992;27;20001;-48
2024/04/09 09:03:25;;;;;;;1.48;0.30;;;14.60;49.70;;;9.33;79.37;95402.41;5248445;27;20025;-51
2024/04/09 09:06:01;;;;;;;0.88;0.30;;;14.60;49.70;;;9.21;80.16;95399.19;5244649;27;20017;-46
2024/04/09 09:08:38;;;;;;;0.80;0.30;;;14.60;49.90;;;9.09;80.66;95403.91;5237055;27;20010;-50
2024/04/09 09:11:04;;;;;;;5.20;0.60;;;14.50;49.80;;;9.21;81.34;95420.44;5250414;27;20373;-49
2024/04/09 09:13:30;;;;;;;1.95;0.45;;;14.50;50.00;;;9.19;81.63;95433.22;5245348;27;20007;-47
2024/04/09 09:15:57;;;;;;;0.60;0.40;;;14.40;50.10;;;9.12;81.73;95433.44;5235108;27;20010;-50
2024/04/09 09:18:24;;;;;;;0.68;0.30;;;14.30;50.40;;;9.01;82.90;95456.50;5248010;27;20046;-47
2024/04/09 09:21:04;;;;;;;0.47;0.30;;;14.20;50.70;;;8.91;82.70;95471.59;5245231;27;20042;-49
2024/04/09 09:23:31;;;;;;;0.28;0.28;;;14.20;51.00;;;8.83;84.19;95480.81;5238283;27;20024;-46
2024/04/09 09:25:58;;;;;;;7.38;0.40;;;14.00;51.00;;;8.75;84.73;95466.16;5242034;27;20019;-50
2024/04/09 09:28:27;;;;;;;0.75;0.30;;;13.90;51.20;;;8.62;85.34;95484.38;5243679;27;20006;-47
2024/04/09 09:30:56;;;;;;;0.73;0.30;;;13.90;51.40;;;8.57;83.47;95462.06;5255424;27;20357;-47
2024/04/09 09:33:30;;;;;;;1.02;0.30;;;13.80;51.70;;;8.44;82.88;95483.72;5239070;27;20469;-46
2024/04/09 09:35:57;;;;;;;1.67;0.40;;;13.80;51.80;;;8.47;83.14;95493.03;5241644;27;20014;-52
2024/04/09 09:38:28;;;;;;;0.68;0.28;;;13.70;51.70;;;8.50;81.15;95489.88;5245609;27;20870;-46
2024/04/09 09:40:57;;;;;;;1.05;0.38;;;13.70;51.90;;;8.46;81.20;95497.56;5245771;27;20041;-49
2024/04/09 09:43:26;;;;;;;0.57;0.30;;;13.70;51.70;;;8.38;80.95;95481.25;5242084;27;20340;-47
2024/04/09 09:45:52;;;;;;;1.23;0.30;;;13.70;51.70;;;8.30;80.88;95499.25;5244839;27;20010;-54
2024/04/09 09:48:25;;;;;;;0.35;0.30;;;13.60;51.60;;;8.43;81.10;95510.50;5247449;27;20017;-47
2024/04/09 09:50:51;;;;;;;0.38;0.32;;;13.70;51.70;;;8.47;81.54;95506.31;5250472;27;20006;-46
2024/04/09 09:53:19;;;;;;;0.80;0.75;;;13.60;51.50;;;8.43;82.40;95532.56;5256617;27;20530;-47
2024/04/09 09:55:53;;;;;;;0.38;0.38;;;13.60;51.60;;;8.44;82.45;95542.13;5277385;26;20006;-49
2024/04/09 09:58:30;;;;;;;0.57;0.28;;;13.60;51.60;;;8.43;82.38;95537.06;5247686;27;20009;-49
2024/04/09 10:01:02;;;;;;;0.93;0.30;;;13.60;51.70;;;8.30;81.69;95552.31;5242394;27;20002;-46
2024/04/09 10:03:29;;;;;;;0.20;0.20;;;13.70;51.80;;;8.13;83.40;95558.78;5239743;27;20449;-47
2024/04/09 10:05:57;;;;;;;0.38;0.22;;;13.70;51.70;;;8.13;84.62;95567.53;5238192;27;20019;-49
2024/04/09 10:08:28;;;;;;;0.60;0.40;;;13.70;51.80;;;8.06;85.05;95559.75;5248394;27;20002;-52
2024/04/09 10:10:55;;;;;;;0.68;0.30;;;13.70;51.90;;;8.10;85.12;95578.63;5249738;27;20020;-50
2024/04/09 10:13:25;;;;;;;0.30;0.30;;;13.60;52.00;;;8.02;85.47;95587.03;5252030;27;20026;-50
2024/04/09 10:16:00;;;;;;;0.40;0.32;;;13.60;52.10;;;8.18;86.77;95593.28;5247397;27;20009;-49